createdAt,value
2019-02-02T00:01:39.818Z,11.80
2019-02-02T00:04:06.440Z,12.60
2019-02-02T00:06:33.013Z,12.90
2019-02-02T00:08:59.603Z,13.77
2019-02-02T00:11:26.249Z,12.63
2019-02-02T00:13:52.785Z,11.60
2019-02-02T00:16:19.382Z,10.77
2019-02-02T00:18:45.910Z,11.73
2019-02-02T00:21:12.404Z,12.47
2019-02-02T00:23:38.948Z,12.10
2019-02-02T00:26:05.485Z,11.00
2019-02-02T00:28:32.036Z,11.73
2019-02-02T00:30:58.659Z,12.00
2019-02-02T00:33:25.289Z,12.03
2019-02-02T00:35:51.876Z,12.33
2019-02-02T00:38:18.328Z,13.33
2019-02-02T00:40:44.967Z,13.03
2019-02-02T00:43:12.124Z,15.43
2019-02-02T00:45:38.674Z,17.57
2019-02-02T00:48:05.391Z,24.87
2019-02-02T00:50:31.792Z,33.80
2019-02-02T00:53:01.021Z,31.63
2019-02-02T00:55:26.938Z,26.30
2019-02-02T00:57:54.107Z,20.60
2019-02-02T01:00:25.884Z,17.60
2019-02-02T01:02:53.893Z,14.93
2019-02-02T01:05:21.885Z,14.93
2019-02-02T01:07:49.379Z,13.03
2019-02-02T01:10:33.759Z,14.00
2019-02-02T01:13:02.185Z,12.83
2019-02-02T01:15:29.179Z,12.80
2019-02-02T01:17:55.765Z,12.43
2019-02-02T01:20:22.482Z,13.43
2019-02-02T01:22:49.296Z,12.97
2019-02-02T01:25:16.079Z,13.97
2019-02-02T01:27:43.216Z,14.10
2019-02-02T01:30:15.021Z,13.63
2019-02-02T01:32:41.750Z,14.23
2019-02-02T01:35:12.183Z,14.63
2019-02-02T01:37:38.867Z,16.97
2019-02-02T01:40:19.036Z,15.60
2019-02-02T01:42:45.664Z,15.53
2019-02-02T01:45:25.430Z,16.20
2019-02-02T01:47:52.469Z,16.53
2019-02-02T01:50:22.206Z,16.70
2019-02-02T01:52:48.818Z,16.37
2019-02-02T01:55:16.619Z,16.57
2019-02-02T01:57:43.378Z,17.10
2019-02-02T02:00:30.636Z,17.57
2019-02-02T02:02:57.207Z,16.97
2019-02-02T02:05:23.935Z,17.57
2019-02-02T02:07:50.550Z,17.90
2019-02-02T02:10:19.163Z,17.37
2019-02-02T02:12:46.079Z,18.03
2019-02-02T02:15:15.823Z,17.47
2019-02-02T02:17:43.465Z,17.57
2019-02-02T02:20:13.662Z,16.93
2019-02-02T02:22:41.484Z,16.43
2019-02-02T02:25:11.830Z,16.73
2019-02-02T02:27:38.375Z,16.30
2019-02-02T02:30:10.005Z,16.60
2019-02-02T02:32:36.572Z,16.47
2019-02-02T02:35:05.290Z,17.63
2019-02-02T02:37:31.894Z,16.60
2019-02-02T02:39:58.376Z,16.40
2019-02-02T02:42:24.786Z,16.00
2019-02-02T02:44:51.189Z,16.37
2019-02-02T02:47:29.409Z,15.40
2019-02-02T02:49:55.816Z,16.57
2019-02-02T02:52:22.349Z,16.87
2019-02-02T02:54:48.749Z,16.77
2019-02-02T02:57:15.309Z,17.83
2019-02-02T02:59:41.819Z,18.13
2019-02-02T03:02:08.229Z,17.77
2019-02-02T03:04:34.859Z,17.67
2019-02-02T03:07:01.257Z,18.40
2019-02-02T03:09:27.564Z,18.97
2019-02-02T03:11:54.011Z,18.40
2019-02-02T03:14:20.350Z,18.23
2019-02-02T03:16:47.049Z,17.67
2019-02-02T03:19:13.471Z,18.57
2019-02-02T03:21:39.970Z,18.30
2019-02-02T03:24:06.474Z,19.87
2019-02-02T03:26:33.029Z,20.03
2019-02-02T03:28:59.471Z,19.67
2019-02-02T03:31:25.858Z,19.40
2019-02-02T03:33:52.415Z,18.43
2019-02-02T03:36:18.815Z,18.07
2019-02-02T03:38:45.232Z,20.70
2019-02-02T03:41:11.746Z,19.90
2019-02-02T03:43:38.144Z,18.33
2019-02-02T03:46:04.805Z,18.03
2019-02-02T03:48:31.374Z,19.10
2019-02-02T03:50:57.900Z,25.20
2019-02-02T03:53:24.210Z,45.27
2019-02-02T03:55:50.740Z,24.53
2019-02-02T03:58:17.083Z,19.17
2019-02-02T04:00:43.697Z,18.73
2019-02-02T04:03:10.788Z,19.33
2019-02-02T04:05:37.289Z,17.90
2019-02-02T04:08:03.910Z,17.80
2019-02-02T04:10:30.422Z,18.40
2019-02-02T04:12:56.807Z,19.10
2019-02-02T04:15:23.526Z,19.53
2019-02-02T04:17:50.264Z,17.63
2019-02-02T04:20:21.954Z,19.60
2019-02-02T04:22:49.065Z,19.47
2019-02-02T04:25:16.962Z,19.73
2019-02-02T04:27:43.568Z,19.20
2019-02-02T04:30:22.878Z,18.10
2019-02-02T04:32:49.424Z,20.47
2019-02-02T04:35:16.125Z,20.47
2019-02-02T04:37:43.121Z,19.97
2019-02-02T04:40:15.000Z,21.23
2019-02-02T04:42:41.679Z,20.77
2019-02-02T04:45:14.150Z,20.30
2019-02-02T04:47:40.799Z,21.23
2019-02-02T04:50:10.971Z,22.07
2019-02-02T04:52:37.795Z,21.97
2019-02-02T04:55:06.209Z,20.67
2019-02-02T04:57:32.735Z,22.13
2019-02-02T04:59:59.128Z,23.27
2019-02-02T05:02:25.435Z,22.47
2019-02-02T05:04:51.843Z,22.43
2019-02-02T05:07:18.133Z,21.93
2019-02-02T05:09:44.561Z,21.40
2019-02-02T05:12:11.020Z,21.63
2019-02-02T05:14:37.565Z,20.90
2019-02-02T05:17:04.045Z,19.83
2019-02-02T05:19:30.463Z,20.60
2019-02-02T05:21:56.844Z,19.67
2019-02-02T05:24:23.274Z,20.33
2019-02-02T05:26:49.650Z,21.20
2019-02-02T05:29:16.173Z,22.00
2019-02-02T05:31:42.565Z,21.27
2019-02-02T05:34:09.100Z,22.80
2019-02-02T05:36:35.707Z,23.27
2019-02-02T05:39:06.026Z,23.57
2019-02-02T05:41:32.304Z,22.60
2019-02-02T05:43:58.705Z,21.40
2019-02-02T05:46:25.219Z,21.07
2019-02-02T05:48:51.500Z,19.50
2019-02-02T05:51:17.806Z,20.30
2019-02-02T05:53:44.192Z,19.53
2019-02-02T05:56:10.578Z,21.13
2019-02-02T05:58:37.115Z,22.07
2019-02-02T06:01:04.119Z,21.47
2019-02-02T06:03:30.674Z,20.57
2019-02-02T06:05:57.211Z,20.13
2019-02-02T06:08:23.604Z,20.60
2019-02-02T06:10:50.051Z,19.00
2019-02-02T06:13:16.517Z,19.90
2019-02-02T06:15:43.067Z,19.50
2019-02-02T06:18:09.878Z,20.47
2019-02-02T06:20:36.384Z,18.80
2019-02-02T06:23:03.179Z,19.13
2019-02-02T06:25:29.674Z,21.17
2019-02-02T06:27:56.294Z,22.17
2019-02-02T06:30:24.100Z,19.93
2019-02-02T06:32:50.785Z,21.63
2019-02-02T06:35:18.193Z,22.60
2019-02-02T06:37:44.995Z,21.70
2019-02-02T06:40:16.176Z,20.93
2019-02-02T06:42:42.775Z,20.70
2019-02-02T06:45:26.098Z,22.13
2019-02-02T06:47:54.596Z,24.23
2019-02-02T06:50:21.230Z,22.47
2019-02-02T06:52:47.869Z,22.27
2019-02-02T06:55:16.386Z,21.27
2019-02-02T06:57:43.029Z,22.53
2019-02-02T07:00:18.291Z,20.87
2019-02-02T07:02:45.374Z,27.30
2019-02-02T07:05:11.989Z,22.83
2019-02-02T07:07:38.710Z,21.63
2019-02-02T07:10:10.679Z,21.07
2019-02-02T07:12:37.294Z,22.77
2019-02-02T07:15:09.320Z,22.07
2019-02-02T07:17:35.945Z,21.60
2019-02-02T07:20:07.127Z,24.20
2019-02-02T07:22:33.620Z,23.10
2019-02-02T07:25:00.011Z,21.83
2019-02-02T07:27:26.460Z,23.43
2019-02-02T07:29:52.857Z,22.57
2019-02-02T07:32:19.151Z,22.90
2019-02-02T07:34:45.785Z,26.20
2019-02-02T07:37:12.179Z,24.37
2019-02-02T07:39:38.591Z,20.93
2019-02-02T07:42:05.177Z,23.87
2019-02-02T07:44:31.718Z,23.10
2019-02-02T07:46:58.305Z,24.63
2019-02-02T07:49:24.734Z,23.80
2019-02-02T07:51:51.431Z,24.33
2019-02-02T07:54:17.966Z,24.20
2019-02-02T07:56:44.476Z,23.97
2019-02-02T07:59:10.995Z,24.50
2019-02-02T08:01:37.648Z,27.90
2019-02-02T08:04:04.925Z,23.40
2019-02-02T08:06:31.420Z,23.97
2019-02-02T08:08:57.925Z,23.63
2019-02-02T08:11:24.580Z,24.97
2019-02-02T08:13:51.018Z,23.03
2019-02-02T08:16:17.597Z,25.00
2019-02-02T08:18:44.359Z,25.27
2019-02-02T08:21:12.790Z,25.90
2019-02-02T08:23:39.344Z,24.57
2019-02-02T08:26:06.182Z,25.27
2019-02-02T08:28:32.685Z,47.60
2019-02-02T08:30:59.248Z,40.80
2019-02-02T08:33:25.769Z,28.63
2019-02-02T08:35:52.399Z,26.77
2019-02-02T08:38:18.915Z,26.90
2019-02-02T08:40:45.604Z,27.87
2019-02-02T08:43:12.153Z,27.90
2019-02-02T08:45:38.826Z,26.70
2019-02-02T08:48:05.555Z,26.90
2019-02-02T08:50:34.902Z,27.77
2019-02-02T08:53:01.538Z,28.00
2019-02-02T08:55:28.321Z,27.97
2019-02-02T08:57:54.965Z,27.97
2019-02-02T09:00:21.819Z,28.80
2019-02-02T09:02:49.373Z,29.37
2019-02-02T09:05:19.587Z,29.00
2019-02-02T09:07:46.196Z,28.40
2019-02-02T09:10:16.230Z,27.20
2019-02-02T09:12:42.890Z,28.97
2019-02-02T09:15:13.520Z,27.57
2019-02-02T09:17:41.195Z,25.37
2019-02-02T09:20:10.665Z,31.77
2019-02-02T09:22:37.270Z,44.30
2019-02-02T09:25:11.418Z,36.17
2019-02-02T09:27:38.062Z,28.50
2019-02-02T09:30:24.213Z,28.23
2019-02-02T09:32:50.903Z,28.73
2019-02-02T09:35:17.609Z,29.10
2019-02-02T09:37:44.194Z,28.37
2019-02-02T09:40:17.451Z,30.07
2019-02-02T09:42:44.351Z,31.00
2019-02-02T09:45:17.766Z,29.57
2019-02-02T09:47:44.379Z,30.47
2019-02-02T09:50:20.952Z,31.77
2019-02-02T09:52:47.949Z,32.60
2019-02-02T09:55:18.182Z,30.97
2019-02-02T09:57:44.767Z,105.37
2019-02-02T10:00:29.546Z,58.93
2019-02-02T10:02:56.535Z,33.13
2019-02-02T10:05:23.320Z,28.03
2019-02-02T10:07:50.169Z,28.50
2019-02-02T10:10:23.066Z,28.13
2019-02-02T10:12:49.625Z,29.70
2019-02-02T10:15:17.650Z,28.90
2019-02-02T10:17:44.284Z,27.73
2019-02-02T10:20:19.076Z,30.80
2019-02-02T10:22:45.875Z,30.03
2019-02-02T10:25:16.337Z,27.37
2019-02-02T10:27:42.895Z,30.70
2019-02-02T10:30:32.278Z,31.20
2019-02-02T10:32:59.315Z,30.23
2019-02-02T10:35:27.208Z,30.33
2019-02-02T10:37:54.115Z,30.80
2019-02-02T10:40:20.917Z,53.63
2019-02-02T10:42:47.611Z,53.83
2019-02-02T10:45:16.272Z,36.47
2019-02-02T10:47:43.179Z,32.17
2019-02-02T10:50:17.330Z,34.20
2019-02-02T10:52:44.624Z,33.73
2019-02-02T10:55:13.881Z,32.03
2019-02-02T10:57:40.463Z,31.67
2019-02-02T11:00:27.305Z,32.53
2019-02-02T11:02:53.877Z,33.80
2019-02-02T11:05:21.067Z,32.50
2019-02-02T11:07:47.902Z,32.90
2019-02-02T11:10:20.960Z,33.20
2019-02-02T11:12:47.651Z,30.90
2019-02-02T11:15:17.367Z,49.03
2019-02-02T11:17:44.427Z,34.20
2019-02-02T11:20:18.393Z,34.93
2019-02-02T11:22:45.267Z,32.13
2019-02-02T11:25:12.958Z,39.23
2019-02-02T11:27:39.635Z,51.90
2019-02-02T11:30:13.781Z,48.20
2019-02-02T11:32:40.806Z,43.17
2019-02-02T11:35:11.091Z,27.33
2019-02-02T11:37:37.751Z,24.90
2019-02-02T11:40:09.829Z,24.37
2019-02-02T11:42:36.281Z,26.00
2019-02-02T11:45:07.365Z,27.03
2019-02-02T11:47:33.852Z,27.30
2019-02-02T11:50:00.466Z,29.80
2019-02-02T11:52:26.980Z,30.90
2019-02-02T11:54:53.394Z,30.47
2019-02-02T11:57:20.081Z,31.30
2019-02-02T11:59:46.611Z,31.57
2019-02-02T12:02:14.503Z,34.00
2019-02-02T12:04:41.478Z,33.00
2019-02-02T12:07:08.100Z,34.60
2019-02-02T12:09:34.727Z,37.97
2019-02-02T12:12:01.216Z,55.40
2019-02-02T12:14:27.747Z,36.87
2019-02-02T12:16:54.378Z,35.73
2019-02-02T12:19:21.005Z,37.30
2019-02-02T12:21:47.518Z,37.80
2019-02-02T12:24:16.215Z,40.80
2019-02-02T12:26:42.682Z,38.13
2019-02-02T12:29:09.627Z,37.90
2019-02-02T12:31:36.137Z,41.07
2019-02-02T12:34:03.175Z,37.63
2019-02-02T12:36:29.702Z,39.80
2019-02-02T12:38:56.347Z,40.93
2019-02-02T12:41:22.954Z,41.40
2019-02-02T12:43:49.643Z,40.90
2019-02-02T12:46:16.175Z,42.70
2019-02-02T12:48:42.845Z,41.23
2019-02-02T12:51:09.498Z,42.63
2019-02-02T12:53:36.122Z,42.37
2019-02-02T12:56:03.058Z,39.97
2019-02-02T12:58:29.750Z,40.03
2019-02-02T13:00:56.420Z,40.87
2019-02-02T13:03:23.121Z,41.73
2019-02-02T13:05:49.772Z,41.03
2019-02-02T13:08:16.467Z,41.07
2019-02-02T13:10:43.181Z,42.10
2019-02-02T13:13:09.820Z,42.07
2019-02-02T13:15:36.453Z,41.73
2019-02-02T13:18:03.281Z,56.37
2019-02-02T13:20:29.928Z,48.43
2019-02-02T13:22:56.705Z,42.77
2019-02-02T13:25:23.349Z,41.97
2019-02-02T13:27:50.593Z,41.30
2019-02-02T13:30:30.495Z,43.63
2019-02-02T13:32:57.106Z,44.77
2019-02-02T13:35:25.013Z,42.97
2019-02-02T13:37:52.068Z,42.60
2019-02-02T13:40:21.175Z,40.30
2019-02-02T13:42:47.842Z,42.67
2019-02-02T13:45:17.684Z,40.47
2019-02-02T13:47:44.350Z,42.73
2019-02-02T13:50:14.054Z,42.40
2019-02-02T13:52:40.707Z,85.23
2019-02-02T13:55:08.554Z,64.43
2019-02-02T13:57:35.337Z,43.80
2019-02-02T14:00:05.512Z,41.40
2019-02-02T14:02:32.092Z,44.13
2019-02-02T14:04:58.578Z,44.23
2019-02-02T14:07:25.316Z,43.43
2019-02-02T14:09:52.091Z,43.60
2019-02-02T14:12:18.736Z,52.53
2019-02-02T14:14:45.442Z,63.33
2019-02-02T14:17:12.216Z,71.43
2019-02-02T14:19:38.876Z,48.93
2019-02-02T14:22:05.582Z,51.37
2019-02-02T14:24:32.227Z,71.80
2019-02-02T14:26:59.072Z,64.17
2019-02-02T14:29:25.618Z,45.20
2019-02-02T14:31:52.477Z,45.23
2019-02-02T14:34:19.271Z,46.37
2019-02-02T14:36:45.923Z,46.13
2019-02-02T14:39:12.711Z,43.80
2019-02-02T14:41:39.440Z,44.80
2019-02-02T14:44:06.157Z,45.20
2019-02-02T14:46:32.838Z,43.93
2019-02-02T14:48:59.631Z,43.40
2019-02-02T14:51:26.139Z,45.90
2019-02-02T14:53:52.993Z,42.47
2019-02-02T14:56:19.400Z,44.77
2019-02-02T14:58:46.180Z,43.77
2019-02-02T15:01:13.030Z,44.73
2019-02-02T15:03:39.831Z,43.43
2019-02-02T15:06:09.511Z,70.63
2019-02-02T15:08:34.987Z,80.97
2019-02-02T15:11:01.789Z,60.17
2019-02-02T15:13:28.478Z,45.37
2019-02-02T15:15:55.145Z,45.20
2019-02-02T15:18:21.965Z,44.47
2019-02-02T15:20:48.728Z,45.13
2019-02-02T15:23:15.377Z,44.27
2019-02-02T15:25:42.207Z,89.33
2019-02-02T15:28:08.765Z,98.17
2019-02-02T15:30:35.977Z,52.00
2019-02-02T15:33:04.099Z,46.27
2019-02-02T15:35:31.075Z,46.00
2019-02-02T15:37:57.761Z,45.07
2019-02-02T15:40:24.466Z,53.40
2019-02-02T15:42:51.174Z,66.73
2019-02-02T15:45:27.029Z,45.20
2019-02-02T15:47:53.651Z,45.37
2019-02-02T15:50:20.373Z,67.10
2019-02-02T15:52:47.009Z,65.87
2019-02-02T15:55:20.454Z,52.10
2019-02-02T15:57:47.090Z,45.50
2019-02-02T16:00:23.209Z,46.60
2019-02-02T16:02:49.883Z,44.23
2019-02-02T16:05:18.674Z,44.07
2019-02-02T16:07:45.334Z,44.43
2019-02-02T16:10:21.780Z,44.60
2019-02-02T16:12:48.690Z,45.60
2019-02-02T16:15:15.558Z,44.00
2019-02-02T16:17:42.435Z,45.10
2019-02-02T16:20:28.118Z,44.23
2019-02-02T16:22:54.602Z,43.67
2019-02-02T16:25:21.231Z,44.90
2019-02-02T16:27:48.193Z,59.83
2019-02-02T16:30:27.236Z,74.53
2019-02-02T16:32:54.190Z,112.67
2019-02-02T16:35:21.448Z,107.60
2019-02-02T16:37:48.298Z,57.83
2019-02-02T16:40:23.861Z,47.17
2019-02-02T16:42:53.487Z,47.97
2019-02-02T16:45:22.417Z,47.17
2019-02-02T16:47:49.282Z,47.60
2019-02-02T16:50:17.528Z,49.90
2019-02-02T16:52:44.689Z,47.00
2019-02-02T16:55:16.228Z,47.27
2019-02-02T16:57:43.001Z,50.13
2019-02-02T17:00:15.052Z,113.97
2019-02-02T17:02:41.727Z,96.80
2019-02-02T17:05:10.496Z,79.90
2019-02-02T17:07:37.077Z,64.40
2019-02-02T17:10:09.050Z,94.00
2019-02-02T17:12:35.828Z,63.47
2019-02-02T17:15:06.166Z,50.63
2019-02-02T17:17:32.692Z,49.33
2019-02-02T17:19:59.306Z,48.13
2019-02-02T17:22:25.915Z,47.47
2019-02-02T17:24:52.609Z,47.87
2019-02-02T17:27:19.400Z,49.17
2019-02-02T17:29:45.837Z,68.37
2019-02-02T17:32:12.638Z,101.83
2019-02-02T17:34:39.443Z,61.07
2019-02-02T17:37:06.107Z,50.30
2019-02-02T17:39:32.492Z,48.33
2019-02-02T17:41:59.120Z,47.70
2019-02-02T17:44:25.668Z,50.90
2019-02-02T17:46:52.018Z,48.97
2019-02-02T17:49:18.873Z,53.70
2019-02-02T17:51:45.494Z,51.17
2019-02-02T17:54:12.490Z,49.27
2019-02-02T17:56:39.034Z,132.93
2019-02-02T17:59:05.904Z,131.00
2019-02-02T18:01:32.735Z,110.17
2019-02-02T18:03:59.387Z,114.60
2019-02-02T18:06:26.189Z,67.00
2019-02-02T18:08:52.814Z,54.30
2019-02-02T18:11:19.365Z,54.30
2019-02-02T18:13:46.193Z,51.67
2019-02-02T18:16:13.028Z,52.93
2019-02-02T18:18:39.776Z,54.37
2019-02-02T18:21:06.454Z,53.73
2019-02-02T18:23:33.157Z,53.80
2019-02-02T18:26:00.016Z,56.07
2019-02-02T18:28:26.622Z,53.27
2019-02-02T18:30:53.350Z,94.10
2019-02-02T18:33:20.277Z,91.30
2019-02-02T18:35:47.284Z,60.70
2019-02-02T18:38:13.956Z,53.90
2019-02-02T18:40:40.827Z,54.77
2019-02-02T18:43:07.664Z,70.67
2019-02-02T18:45:34.471Z,112.97
2019-02-02T18:48:01.216Z,69.43
2019-02-02T18:50:27.931Z,57.00
2019-02-02T18:52:57.686Z,54.60
2019-02-02T18:55:39.031Z,57.60
2019-02-02T18:58:07.710Z,54.67
2019-02-02T19:00:34.333Z,52.70
2019-02-02T19:03:01.010Z,54.50
2019-02-02T19:05:29.252Z,168.33
2019-02-02T19:07:56.268Z,155.00
2019-02-02T19:10:34.012Z,85.13
2019-02-02T19:13:00.967Z,59.20
2019-02-02T19:15:27.667Z,56.93
2019-02-02T19:17:54.410Z,56.13
2019-02-02T19:20:21.959Z,55.17
2019-02-02T19:22:49.029Z,56.00
2019-02-02T19:25:15.919Z,55.57
2019-02-02T19:27:42.677Z,60.27
2019-02-02T19:30:19.489Z,78.63
2019-02-02T19:32:46.561Z,74.37
2019-02-02T19:35:16.251Z,86.47
2019-02-02T19:37:41.859Z,61.67
2019-02-02T19:40:14.643Z,60.03
2019-02-02T19:42:41.413Z,60.17
2019-02-02T19:45:15.823Z,60.30
2019-02-02T19:47:42.811Z,61.37
2019-02-02T19:50:26.299Z,77.13
2019-02-02T19:52:52.948Z,82.17
2019-02-02T19:55:19.843Z,64.63
2019-02-02T19:57:46.781Z,68.93
2019-02-02T20:00:26.822Z,82.67
2019-02-02T20:02:53.968Z,67.83
2019-02-02T20:05:28.119Z,63.73
2019-02-02T20:07:49.228Z,62.07
2019-02-02T20:10:17.178Z,61.47
2019-02-02T20:12:44.021Z,60.27
2019-02-02T20:15:18.268Z,63.20
2019-02-02T20:17:45.849Z,74.50
2019-02-02T20:20:18.172Z,81.33
2019-02-02T20:22:44.939Z,60.73
2019-02-02T20:25:13.529Z,60.63
2019-02-02T20:27:40.186Z,59.70
2019-02-02T20:30:20.099Z,60.53
2019-02-02T20:32:48.715Z,60.87
2019-02-02T20:35:15.565Z,61.10
2019-02-02T20:37:42.332Z,56.97
2019-02-02T20:40:13.281Z,57.17
2019-02-02T20:42:40.220Z,58.17
2019-02-02T20:45:11.911Z,76.40
2019-02-02T20:47:38.779Z,90.33
2019-02-02T20:50:13.190Z,71.77
2019-02-02T20:52:46.928Z,98.77
2019-02-02T20:55:12.597Z,75.77
2019-02-02T20:57:39.381Z,58.77
2019-02-02T21:00:17.312Z,53.67
2019-02-02T21:02:43.889Z,53.83
2019-02-02T21:05:10.686Z,51.77
2019-02-02T21:07:37.373Z,51.17
2019-02-02T21:10:09.387Z,75.03
2019-02-02T21:12:36.492Z,64.23
2019-02-02T21:15:08.182Z,52.83
2019-02-02T21:17:35.000Z,56.90
2019-02-02T21:20:01.658Z,51.97
2019-02-02T21:22:28.504Z,52.37
2019-02-02T21:24:55.070Z,50.87
2019-02-02T21:27:22.005Z,48.97
2019-02-02T21:29:50.462Z,48.57
2019-02-02T21:32:16.974Z,49.83
2019-02-02T21:34:43.902Z,48.47
2019-02-02T21:37:10.343Z,50.77
2019-02-02T21:39:36.834Z,50.60
2019-02-02T21:42:03.744Z,220.47
2019-02-02T21:44:30.557Z,148.03
2019-02-02T21:46:57.324Z,88.77
2019-02-02T21:49:24.149Z,61.10
2019-02-02T21:51:50.665Z,51.70
2019-02-02T21:54:17.320Z,49.37
2019-02-02T21:56:44.122Z,48.90
2019-02-02T21:59:10.802Z,47.80
2019-02-02T22:01:37.526Z,50.53
2019-02-02T22:04:04.889Z,50.30
2019-02-02T22:06:31.421Z,49.23
2019-02-02T22:08:58.254Z,51.10
2019-02-02T22:11:25.533Z,186.83
2019-02-02T22:13:52.213Z,112.13
2019-02-02T22:16:19.286Z,51.67
2019-02-02T22:18:45.934Z,49.00
2019-02-02T22:21:12.582Z,48.10
2019-02-02T22:23:39.237Z,49.47
2019-02-02T22:26:05.978Z,49.13
2019-02-02T22:28:32.569Z,52.33
2019-02-02T22:30:59.214Z,50.73
2019-02-02T22:33:25.838Z,50.50
2019-02-02T22:35:52.592Z,56.50
2019-02-02T22:38:19.201Z,73.10
2019-02-02T22:40:45.748Z,90.10
2019-02-02T22:43:12.423Z,54.43
2019-02-02T22:45:39.024Z,50.63
2019-02-02T22:48:05.927Z,53.73
2019-02-02T22:50:32.453Z,74.17
2019-02-02T22:52:58.872Z,88.73
2019-02-02T22:55:25.414Z,94.07
2019-02-02T22:57:53.160Z,55.53
2019-02-02T23:00:42.638Z,60.77
2019-02-02T23:03:13.261Z,56.63
2019-02-02T23:06:06.125Z,54.43
2019-02-02T23:08:44.750Z,55.60
2019-02-02T23:11:36.634Z,52.07
2019-02-02T23:14:48.176Z,54.23
2019-02-02T23:17:14.956Z,52.10
2019-02-02T23:19:41.549Z,51.43
2019-02-02T23:22:08.324Z,55.27
2019-02-02T23:24:35.032Z,61.53
2019-02-02T23:27:01.683Z,57.10
2019-02-02T23:29:28.173Z,54.97
2019-02-02T23:31:54.758Z,58.77
2019-02-02T23:34:21.272Z,56.90
2019-02-02T23:36:53.593Z,55.67
2019-02-02T23:39:16.153Z,54.93
2019-02-02T23:41:42.688Z,57.73
2019-02-02T23:44:09.320Z,54.87
2019-02-02T23:46:36.048Z,62.73
2019-02-02T23:49:02.778Z,60.17
2019-02-02T23:51:29.468Z,58.27
2019-02-02T23:53:56.258Z,60.17
2019-02-02T23:56:23.173Z,58.90
2019-02-02T23:58:49.729Z,60.20
